Time;durP1;ratioP1;P1;durP2;ratioP2;P2;SDS_P1;SDS_P2;PMS_P1;PMS_P2;Temp;Humidity;BMP_temperature;BMP_pressure;BME280_temperature;BME280_humidity;BME280_pressure;Samples;Min_cycle;Max_cycle;Signal;HPM_P1;HPM_P2
2023/07/05 00:01:11;;;;;;;;;;;;;;;20.82;100.00;95145.91;5115518;28;1048;-53
2023/07/05 00:03:37;;;;;;;;;;;;;;;20.93;100.00;95144.34;5115359;28;1170;-53
2023/07/05 00:06:04;;;;;;;;;;;;;;;20.89;100.00;95140.38;5115327;28;971;-53
2023/07/05 00:08:31;;;;;;;;;;;;;;;20.87;100.00;95143.34;5115131;27;1909;-53
2023/07/05 00:11:01;;;;;;;;;;;;;;;20.78;100.00;95144.69;5115159;28;1613;-53
2023/07/05 00:13:27;;;;;;;;;;;;;;;20.93;100.00;95157.94;5115360;28;941;-53
2023/07/05 00:15:54;;;;;;;;;;;;;;;20.87;100.00;95162.38;5115324;27;994;-52
2023/07/05 00:18:20;;;;;;;;;;;;;;;20.78;100.00;95148.25;5114864;28;1273;-53
2023/07/05 00:20:46;;;;;;;;;;;;;;;20.75;100.00;95151.41;5115169;28;1044;-53
2023/07/05 00:23:12;;;;;;;;;;;;;;;20.52;100.00;95146.59;5114862;28;1027;-53
2023/07/05 00:25:38;;;;;;;;;;;;;;;20.48;100.00;95148.91;5114898;28;977;-52
2023/07/05 00:28:04;;;;;;;;;;;;;;;20.62;100.00;95152.38;5114981;28;1997;-52
2023/07/05 00:30:30;;;;;;;;;;;;;;;20.67;100.00;95155.25;5114943;28;1124;-52
2023/07/05 00:32:55;;;;;;;;;;;;;;;20.71;100.00;95150.19;5114807;28;1008;-52
2023/07/05 00:35:22;;;;;;;;;;;;;;;20.66;100.00;95148.16;5113557;28;1045;-52
2023/07/05 00:37:47;;;;;;;;;;;;;;;20.46;100.00;95151.03;5114112;28;1028;-52
2023/07/05 00:40:14;;;;;;;;;;;;;;;20.23;100.00;95148.09;5114406;28;1115;-52
2023/07/05 00:42:40;;;;;;;;;;;;;;;20.04;100.00;95152.63;5114588;28;1111;-53
2023/07/05 00:45:08;;;;;;;;;;;;;;;19.97;100.00;95152.66;5114557;28;1886;-53
2023/07/05 00:47:35;;;;;;;;;;;;;;;20.06;100.00;95148.63;5114365;28;1905;-52
2023/07/05 00:50:16;;;;;;;;;;;;;;;20.09;100.00;95161.78;5114509;28;1138;-52
2023/07/05 00:52:43;;;;;;;;;;;;;;;20.21;100.00;95153.75;5114481;28;1015;-52
2023/07/05 00:55:10;;;;;;;;;;;;;;;20.26;100.00;95158.50;5114599;28;1067;-53
2023/07/05 00:57:37;;;;;;;;;;;;;;;20.28;100.00;95154.53;5114435;28;1597;-52
2023/07/05 01:00:07;;;;;;;;;;;;;;;20.31;100.00;95145.09;5114446;28;1043;-52
2023/07/05 01:02:38;;;;;;;;;;;;;;;20.19;100.00;95142.28;5114343;28;1035;-52
2023/07/05 01:05:05;;;;;;;;;;;;;;;20.13;100.00;95156.75;5114271;28;1022;-53
2023/07/05 01:07:32;;;;;;;;;;;;;;;20.24;100.00;95157.88;5114288;28;1918;-53
2023/07/05 01:09:58;;;;;;;;;;;;;;;20.42;100.00;95154.41;5114326;28;960;-52
2023/07/05 01:12:28;;;;;;;;;;;;;;;20.45;100.00;95153.94;5113963;28;1431;-53
2023/07/05 01:15:03;;;;;;;;;;;;;;;20.35;100.00;95159.06;5114125;28;1024;-52
2023/07/05 01:17:41;;;;;;;;;;;;;;;20.33;100.00;95156.56;5113953;28;1032;-52
2023/07/05 01:20:23;;;;;;;;;;;;;;;20.38;100.00;95159.47;5113865;28;1088;-53
2023/07/05 01:23:08;;;;;;;;;;;;;;;20.32;100.00;95149.50;5114224;28;965;-53
2023/07/05 01:25:55;;;;;;;;;;;;;;;19.96;100.00;95142.88;5113935;28;1983;-53
2023/07/05 01:28:24;;;;;;;;;;;;;;;19.68;100.00;95133.22;5106607;28;1917;-53
2023/07/05 01:31:09;;;;;;;;;;;;;;;19.89;100.00;95131.25;5112955;28;1216;-53
2023/07/05 01:33:38;;;;;;;;;;;;;;;20.26;100.00;95134.91;5114049;28;1011;-53
2023/07/05 01:36:05;;;;;;;;;;;;;;;20.38;100.00;95129.59;5114050;28;1050;-53
2023/07/05 01:38:31;;;;;;;;;;;;;;;20.34;100.00;95127.56;5113761;28;991;-53
2023/07/05 01:41:00;;;;;;;;;;;;;;;20.26;100.00;95134.91;5114101;28;1014;-53
2023/07/05 01:43:28;;;;;;;;;;;;;;;20.07;100.00;95128.59;5113872;28;1044;-53
2023/07/05 01:45:54;;;;;;;;;;;;;;;20.11;100.00;95133.56;5113941;28;999;-53
2023/07/05 01:48:23;;;;;;;;;;;;;;;20.18;100.00;95120.78;5113607;28;1910;-53
2023/07/05 01:50:52;;;;;;;;;;;;;;;20.20;100.00;95111.34;5117023;28;1054;-52
2023/07/05 01:53:26;;;;;;;;;;;;;;;20.20;100.00;95105.91;5117790;28;1002;-53
2023/07/05 01:56:01;;;;;;;;;;;;;;;20.07;100.00;95111.47;5118001;28;1538;-53
2023/07/05 01:58:28;;;;;;;;;;;;;;;19.98;100.00;95101.97;5117796;28;1090;-53
2023/07/05 02:00:57;;;;;;;;;;;;;;;20.11;100.00;95099.13;5117905;28;1048;-53
2023/07/05 02:03:23;;;;;;;;;;;;;;;19.96;100.00;95093.22;5117686;28;1031;-53
2023/07/05 02:05:50;;;;;;;;;;;;;;;19.87;100.00;95090.75;5117703;28;1034;-53
2023/07/05 02:08:17;;;;;;;;;;;;;;;20.07;100.00;95087.03;5117507;28;2007;-53
2023/07/05 02:10:43;;;;;;;;;;;;;;;20.13;100.00;95093.47;5117719;28;1484;-53
2023/07/05 02:13:11;;;;;;;;;;;;;;;20.25;100.00;95097.13;5117639;28;1067;-53
2023/07/05 02:15:40;;;;;;;;;;;;;;;20.34;100.00;95098.50;5117495;28;1023;-53
2023/07/05 02:18:06;;;;;;;;;;;;;;;20.41;100.00;95090.28;5117294;28;1108;-53
2023/07/05 02:20:32;;;;;;;;;;;;;;;20.52;100.00;95075.97;5117130;28;1100;-53
2023/07/05 02:22:59;;;;;;;;;;;;;;;20.61;100.00;95068.41;5117554;28;1029;-53
2023/07/05 02:25:25;;;;;;;;;;;;;;;20.57;100.00;95061.72;5116041;28;1008;-53
2023/07/05 02:27:51;;;;;;;;;;;;;;;20.52;100.00;95058.84;5117295;28;1988;-53
2023/07/05 02:30:18;;;;;;;;;;;;;;;20.46;100.00;95061.41;5117106;28;1007;-53
2023/07/05 02:32:44;;;;;;;;;;;;;;;20.31;100.00;95058.22;5117140;28;1087;-53
2023/07/05 02:35:10;;;;;;;;;;;;;;;19.97;100.00;95060.41;5117008;28;1020;-53
2023/07/05 02:37:36;;;;;;;;;;;;;;;19.76;100.00;95052.66;5117324;28;1030;-53
2023/07/05 02:40:03;;;;;;;;;;;;;;;19.70;100.00;95052.44;5117159;28;1035;-53
2023/07/05 02:42:29;;;;;;;;;;;;;;;19.69;100.00;95056.22;5116906;28;1882;-53
2023/07/05 02:44:55;;;;;;;;;;;;;;;19.88;100.00;95053.59;5116932;28;1039;-53
2023/07/05 02:47:21;;;;;;;;;;;;;;;20.03;100.00;95050.53;5116800;28;1914;-52
2023/07/05 02:49:47;;;;;;;;;;;;;;;20.08;100.00;95054.25;5116792;28;1034;-53
2023/07/05 02:52:13;;;;;;;;;;;;;;;20.19;100.00;95054.59;5115539;28;1020;-53
2023/07/05 02:54:39;;;;;;;;;;;;;;;20.16;100.00;95058.56;5116721;28;1993;-52
2023/07/05 02:57:06;;;;;;;;;;;;;;;20.11;100.00;95061.13;5116669;28;1354;-52
2023/07/05 02:59:32;;;;;;;;;;;;;;;20.09;100.00;95063.25;5116673;28;980;-52
2023/07/05 03:01:58;;;;;;;;;;;;;;;20.13;100.00;95061.75;5115869;28;1334;-52
2023/07/05 03:04:24;;;;;;;;;;;;;;;20.17;100.00;95062.13;5116421;28;964;-53
2023/07/05 03:06:50;;;;;;;;;;;;;;;20.17;100.00;95062.97;5116633;28;2000;-52
2023/07/05 03:09:18;;;;;;;;;;;;;;;20.18;100.00;95059.16;5116469;28;954;-54
2023/07/05 03:11:44;;;;;;;;;;;;;;;20.26;100.00;95066.19;5115119;28;1436;-53
2023/07/05 03:14:10;;;;;;;;;;;;;;;20.13;100.00;95069.03;5116364;28;948;-53
2023/07/05 03:16:36;;;;;;;;;;;;;;;20.04;100.00;95093.75;5116386;28;1015;-53
2023/07/05 03:19:02;;;;;;;;;;;;;;;20.11;100.00;95106.44;5116111;28;1111;-53
2023/07/05 03:21:28;;;;;;;;;;;;;;;20.13;100.00;95109.75;5116390;28;1036;-52
2023/07/05 03:23:54;;;;;;;;;;;;;;;20.07;100.00;95117.75;5116275;28;994;-53
2023/07/05 03:26:20;;;;;;;;;;;;;;;20.00;100.00;95121.56;5115974;28;1075;-53
2023/07/05 03:28:46;;;;;;;;;;;;;;;19.97;100.00;95130.97;5116001;28;1972;-53
2023/07/05 03:31:13;;;;;;;;;;;;;;;19.90;100.00;95124.78;5115987;28;952;-53
2023/07/05 03:33:40;;;;;;;;;;;;;;;20.01;100.00;95128.63;5115920;28;979;-52
2023/07/05 03:36:07;;;;;;;;;;;;;;;19.99;100.00;95122.59;5116139;28;1003;-52
2023/07/05 03:38:34;;;;;;;;;;;;;;;19.98;100.00;95129.91;5116015;28;1011;-53
2023/07/05 03:41:01;;;;;;;;;;;;;;;20.09;100.00;95133.81;5115862;28;1027;-54
2023/07/05 03:43:28;;;;;;;;;;;;;;;20.20;100.00;95129.53;5115855;28;989;-54
2023/07/05 03:45:54;;;;;;;;;;;;;;;20.23;100.00;95126.38;5115705;28;995;-53
2023/07/05 03:48:21;;;;;;;;;;;;;;;20.32;100.00;95118.78;5115543;28;1906;-53
2023/07/05 03:50:47;;;;;;;;;;;;;;;20.42;100.00;95117.22;5115531;28;1023;-53
2023/07/05 03:53:13;;;;;;;;;;;;;;;20.50;100.00;95112.56;5115721;28;972;-53
2023/07/05 03:55:39;;;;;;;;;;;;;;;20.46;100.00;95112.19;5115571;28;1251;-53
2023/07/05 03:58:05;;;;;;;;;;;;;;;20.23;100.00;95110.09;5115315;28;1126;-53
2023/07/05 04:00:31;;;;;;;;;;;;;;;20.07;100.00;95111.47;5115248;28;972;-53
2023/07/05 04:02:57;;;;;;;;;;;;;;;20.01;100.00;95118.59;5114034;28;976;-53
2023/07/05 04:05:23;;;;;;;;;;;;;;;20.18;100.00;95108.03;5115368;28;1028;-53
2023/07/05 04:07:49;;;;;;;;;;;;;;;20.35;100.00;95116.44;5115258;28;1905;-53
2023/07/05 04:10:15;;;;;;;;;;;;;;;20.51;100.00;95112.34;5115096;28;1329;-53
2023/07/05 04:12:41;;;;;;;;;;;;;;;20.79;100.00;95108.31;5115178;28;994;-53
2023/07/05 04:15:07;;;;;;;;;;;;;;;21.00;100.00;95107.03;5115003;28;1036;-53
2023/07/05 04:17:33;;;;;;;;;;;;;;;21.04;100.00;95109.06;5114856;28;1037;-53
2023/07/05 04:19:59;;;;;;;;;;;;;;;21.13;100.00;95108.75;5114863;28;1080;-53
2023/07/05 04:22:25;;;;;;;;;;;;;;;21.12;100.00;95105.22;5114925;28;973;-53
2023/07/05 04:24:51;;;;;;;;;;;;;;;21.33;100.00;95114.78;5115039;28;1039;-53
2023/07/05 04:27:17;;;;;;;;;;;;;;;21.48;100.00;95106.25;5114767;28;1898;-53
2023/07/05 04:29:43;;;;;;;;;;;;;;;21.55;99.78;95107.00;5113583;28;963;-53
2023/07/05 04:32:09;;;;;;;;;;;;;;;21.52;100.00;95102.00;5114602;28;933;-53
2023/07/05 04:34:35;;;;;;;;;;;;;;;21.61;99.47;95106.06;5114847;28;1075;-53
2023/07/05 04:37:01;;;;;;;;;;;;;;;21.67;99.54;95108.94;5114814;28;964;-53
2023/07/05 04:39:27;;;;;;;;;;;;;;;21.81;98.98;95105.75;5114634;28;988;-53
2023/07/05 04:41:53;;;;;;;;;;;;;;;21.85;97.26;95100.69;5114584;28;999;-53
2023/07/05 04:44:19;;;;;;;;;;;;;;;22.07;98.00;95111.03;5114387;28;1058;-53
2023/07/05 04:46:45;;;;;;;;;;;;;;;22.12;96.91;95106.56;5114225;28;1902;-53
2023/07/05 04:49:11;;;;;;;;;;;;;;;22.27;97.28;95106.13;5114488;28;993;-54
2023/07/05 04:51:37;;;;;;;;;;;;;;;22.25;95.33;95096.50;5114503;28;1019;-53
2023/07/05 04:54:03;;;;;;;;;;;;;;;22.57;92.91;95102.44;5114525;28;1305;-53
2023/07/05 04:56:29;;;;;;;;;;;;;;;22.79;91.52;95099.97;5114130;28;1307;-53
2023/07/05 04:58:56;;;;;;;;;;;;;;;22.91;90.39;95108.94;5114240;28;987;-53
2023/07/05 05:01:22;;;;;;;;;;;;;;;22.94;89.26;95102.19;5112843;28;1157;-53
2023/07/05 05:03:48;;;;;;;;;;;;;;;23.02;89.11;95101.81;5114413;27;1060;-52
2023/07/05 05:06:14;;;;;;;;;;;;;;;23.19;88.99;95102.75;5114235;28;1015;-53
2023/07/05 05:08:40;;;;;;;;;;;;;;;23.25;87.69;95100.94;5114331;28;1918;-52
2023/07/05 05:11:06;;;;;;;;;;;;;;;23.28;89.82;95100.47;5114063;28;1321;-53
2023/07/05 05:13:34;;;;;;;;;;;;;;;23.49;87.45;95101.72;5113924;28;1028;-52
2023/07/05 05:16:00;;;;;;;;;;;;;;;23.73;86.32;95105.16;5113933;28;1062;-52
2023/07/05 05:18:28;;;;;;;;;;;;;;;23.55;86.48;95106.19;5113985;28;1246;-53
2023/07/05 05:20:54;;;;;;;;;;;;;;;23.30;87.67;95106.53;5114215;28;999;-52
2023/07/05 05:23:20;;;;;;;;;;;;;;;23.10;91.09;95106.09;5113798;28;1090;-52
2023/07/05 05:25:46;;;;;;;;;;;;;;;22.95;91.13;95110.09;5113464;28;1103;-52
2023/07/05 05:28:13;;;;;;;;;;;;;;;22.84;91.38;95113.72;5113773;28;1929;-52
2023/07/05 05:30:40;;;;;;;;;;;;;;;22.51;95.79;95108.84;5113712;28;1022;-52
2023/07/05 05:33:06;;;;;;;;;;;;;;;22.36;96.84;95118.31;5114024;28;1086;-52
2023/07/05 05:35:32;;;;;;;;;;;;;;;22.48;93.56;95122.94;5113872;28;965;-52
2023/07/05 05:37:58;;;;;;;;;;;;;;;22.54;93.76;95122.00;5113858;28;1063;-52
2023/07/05 05:40:24;;;;;;;;;;;;;;;22.69;93.28;95122.38;5113757;28;968;-53
2023/07/05 05:42:50;;;;;;;;;;;;;;;22.70;93.91;95128.63;5113754;28;1043;-52
2023/07/05 05:45:16;;;;;;;;;;;;;;;22.85;91.94;95123.53;5113517;28;1840;-52
2023/07/05 05:47:42;;;;;;;;;;;;;;;22.93;92.82;95122.34;5113617;28;1986;-52
2023/07/05 05:50:09;;;;;;;;;;;;;;;23.18;90.45;95125.66;5113857;28;1026;-53
2023/07/05 05:52:35;;;;;;;;;;;;;;;23.53;87.97;95124.72;5113797;28;1391;-52
2023/07/05 05:55:04;;;;;;;;;;;;;;;23.90;86.74;95127.09;5113414;28;961;-52
2023/07/05 05:57:30;;;;;;;;;;;;;;;24.14;85.99;95132.41;5113506;28;1335;-53
2023/07/05 05:59:56;;;;;;;;;;;;;;;24.29;86.17;95127.19;5113550;28;955;-53
2023/07/05 06:02:22;;;;;;;;;;;;;;;24.58;85.34;95129.88;5113725;28;1038;-53
2023/07/05 06:04:48;;;;;;;;;;;;;;;24.84;83.18;95141.19;5113745;28;1015;-52
2023/07/05 06:07:14;;;;;;;;;;;;;;;25.10;81.87;95142.41;5113503;28;1984;-53
2023/07/05 06:09:45;;;;;;;;;;;;;;;25.35;82.45;95141.09;5113484;28;1024;-53
2023/07/05 06:12:12;;;;;;;;;;;;;;;25.23;82.99;95143.94;5113531;28;1700;-53
2023/07/05 06:14:38;;;;;;;;;;;;;;;25.39;81.70;95150.47;5113473;28;1032;-53
2023/07/05 06:17:05;;;;;;;;;;;;;;;25.50;81.14;95146.78;5113535;28;1075;-53
2023/07/05 06:19:31;;;;;;;;;;;;;;;25.74;79.89;95143.75;5113231;28;1233;-53
2023/07/05 06:21:59;;;;;;;;;;;;;;;25.64;80.02;95144.47;5113418;28;1091;-53
2023/07/05 06:24:25;;;;;;;;;;;;;;;25.71;76.34;95145.09;5113454;28;1051;-53
2023/07/05 06:26:52;;;;;;;;;;;;;;;25.81;77.79;95134.25;5113241;28;1952;-53
2023/07/05 06:29:18;;;;;;;;;;;;;;;26.09;77.42;95141.41;5113323;28;758;-53
2023/07/05 06:31:44;;;;;;;;;;;;;;;26.36;75.43;95146.03;5112390;28;1071;-53
2023/07/05 06:34:10;;;;;;;;;;;;;;;26.48;72.84;95134.91;5113436;28;984;-53
2023/07/05 06:36:36;;;;;;;;;;;;;;;26.64;73.33;95136.72;5114395;28;1364;-53
2023/07/05 06:39:02;;;;;;;;;;;;;;;26.65;72.00;95135.66;5116609;28;953;-53
2023/07/05 06:41:29;;;;;;;;;;;;;;;26.73;72.96;95130.72;5116107;28;951;-53
2023/07/05 06:43:55;;;;;;;;;;;;;;;26.65;77.28;95129.31;5116777;28;1036;-53
2023/07/05 06:46:21;;;;;;;;;;;;;;;26.75;75.48;95123.06;5116901;28;1031;-52
2023/07/05 06:48:48;;;;;;;;;;;;;;;26.84;74.63;95121.50;5116595;28;1918;-53
2023/07/05 06:51:14;;;;;;;;;;;;;;;26.74;76.02;95124.16;5116746;28;965;-53
2023/07/05 06:53:41;;;;;;;;;;;;;;;26.41;76.69;95126.09;5116601;28;1032;-53
2023/07/05 06:56:09;;;;;;;;;;;;;;;26.45;78.22;95127.22;5116532;28;1248;-53
2023/07/05 06:58:35;;;;;;;;;;;;;;;26.44;78.54;95125.56;5116502;28;1031;-53
2023/07/05 07:01:01;;;;;;;;;;;;;;;26.42;78.27;95114.84;5116789;28;1006;-53
2023/07/05 07:03:27;;;;;;;;;;;;;;;26.71;76.46;95116.47;5116556;28;1134;-53
2023/07/05 07:05:55;;;;;;;;;;;;;;;26.82;75.14;95116.25;5116550;28;1019;-53
2023/07/05 07:08:21;;;;;;;;;;;;;;;26.86;75.41;95111.94;5116195;28;1914;-53
2023/07/05 07:10:47;;;;;;;;;;;;;;;26.93;76.67;95110.84;5116300;28;1324;-53
2023/07/05 07:13:14;;;;;;;;;;;;;;;27.01;75.55;95110.34;5116173;28;1024;-53
2023/07/05 07:15:41;;;;;;;;;;;;;;;26.63;77.45;95106.81;5116492;28;1010;-53
2023/07/05 07:18:08;;;;;;;;;;;;;;;26.85;75.92;95109.44;5114978;28;1023;-53
2023/07/05 07:20:34;;;;;;;;;;;;;;;26.90;74.00;95106.75;5115913;28;1218;-53
2023/07/05 07:23:00;;;;;;;;;;;;;;;26.97;74.13;95107.31;5116193;28;977;-53
2023/07/05 07:25:27;;;;;;;;;;;;;;;27.23;72.60;95112.94;5115974;28;1019;-53
2023/07/05 07:27:53;;;;;;;;;;;;;;;27.18;72.16;95110.16;5115889;28;1905;-53
2023/07/05 07:30:19;;;;;;;;;;;;;;;27.29;72.93;95109.16;5116307;28;1015;-53
2023/07/05 07:32:46;;;;;;;;;;;;;;;27.30;73.62;95094.34;5116056;28;987;-53
2023/07/05 07:35:12;;;;;;;;;;;;;;;27.64;72.38;95096.66;5115732;28;1024;-53
2023/07/05 07:37:38;;;;;;;;;;;;;;;27.88;69.76;95096.16;5115800;28;1066;-53
2023/07/05 07:40:06;;;;;;;;;;;;;;;27.96;71.98;95101.16;5115853;28;990;-53
2023/07/05 07:42:32;;;;;;;;;;;;;;;28.16;70.50;95092.94;5115590;28;967;-53
2023/07/05 07:44:58;;;;;;;;;;;;;;;28.02;70.99;95092.66;5115946;28;1019;-53
2023/07/05 07:47:25;;;;;;;;;;;;;;;27.84;70.20;95091.22;5115263;28;1996;-53
2023/07/05 07:49:51;;;;;;;;;;;;;;;27.89;74.20;95095.09;5115576;28;1094;-53
2023/07/05 07:52:18;;;;;;;;;;;;;;;27.99;72.24;95095.13;5115544;28;988;-53
2023/07/05 07:54:44;;;;;;;;;;;;;;;28.22;71.81;95093.78;5115433;28;1026;-53
2023/07/05 07:57:10;;;;;;;;;;;;;;;28.39;70.42;95090.75;5115134;28;1307;-53
2023/07/05 07:59:40;;;;;;;;;;;;;;;28.24;68.70;95092.38;5115638;28;1016;-53
2023/07/05 08:02:11;;;;;;;;;;;;;;;28.32;68.49;95082.78;5115369;28;1189;-53
2023/07/05 08:04:44;;;;;;;;;;;;;;;28.34;72.64;95088.00;5115308;28;1035;-53
2023/07/05 08:07:10;;;;;;;;;;;;;;;28.36;70.55;95094.03;5115094;28;1914;-53
2023/07/05 08:09:36;;;;;;;;;;;;;;;28.58;69.17;95094.63;5115157;28;1013;-53
2023/07/05 08:12:03;;;;;;;;;;;;;;;28.75;69.13;95094.31;5115069;28;1387;-53
2023/07/05 08:14:29;;;;;;;;;;;;;;;28.68;68.23;95092.97;5115180;28;1020;-53
2023/07/05 08:16:55;;;;;;;;;;;;;;;28.51;67.98;95090.47;5115206;28;961;-53
2023/07/05 08:19:21;;;;;;;;;;;;;;;28.51;66.64;95096.78;5114849;28;1286;-53
2023/07/05 08:21:47;;;;;;;;;;;;;;;28.89;68.06;95091.81;5114974;28;1110;-53
2023/07/05 08:24:14;;;;;;;;;;;;;;;29.12;64.66;95095.06;5114744;28;1159;-52
2023/07/05 08:26:41;;;;;;;;;;;;;;;29.05;64.92;95089.06;5115110;28;995;-53
2023/07/05 08:29:08;;;;;;;;;;;;;;;28.59;67.34;95082.53;5114927;27;1906;-53
2023/07/05 08:31:34;;;;;;;;;;;;;;;28.27;67.68;95065.44;5114834;27;967;-53
2023/07/05 08:34:01;;;;;;;;;;;;;;;28.06;67.14;95065.47;5114667;28;1031;-53
2023/07/05 08:36:30;;;;;;;;;;;;;;;27.90;69.20;95052.78;5114615;28;1114;-53
2023/07/05 08:38:56;;;;;;;;;;;;;;;27.77;66.43;95054.09;5114589;28;1018;-53
2023/07/05 08:41:25;;;;;;;;;;;;;;;28.14;67.36;95062.16;5114734;28;965;-53
2023/07/05 08:44:00;;;;;;;;;;;;;;;28.49;64.88;95062.44;5114958;28;1376;-54
2023/07/05 08:46:27;;;;;;;;;;;;;;;28.76;63.41;95071.22;5114513;28;1010;-53
2023/07/05 08:48:56;;;;;;;;;;;;;;;29.07;64.07;95070.34;5114363;28;1906;-54
2023/07/05 08:51:22;;;;;;;;;;;;;;;28.87;62.57;95080.28;5114784;28;1060;-53
2023/07/05 08:53:53;;;;;;;;;;;;;;;28.56;63.11;95071.25;5113145;28;1119;-53
2023/07/05 08:56:24;;;;;;;;;;;;;;;28.40;63.32;95078.63;5114325;28;1377;-53
2023/07/05 08:58:57;;;;;;;;;;;;;;;28.07;66.24;95071.78;5113649;28;1035;-53
2023/07/05 09:01:28;;;;;;;;;;;;;;;28.04;65.41;95067.66;5114335;28;1070;-53
2023/07/05 09:03:54;;;;;;;;;;;;;;;28.08;64.81;95074.25;5114337;28;1043;-53
2023/07/05 09:06:23;;;;;;;;;;;;;;;27.99;66.23;95067.66;5114170;28;1109;-52
2023/07/05 09:08:58;;;;;;;;;;;;;;;27.83;64.71;95064.84;5114342;28;1991;-53
2023/07/05 09:11:25;;;;;;;;;;;;;;;27.57;64.25;95063.16;5114159;28;1416;-53
2023/07/05 09:13:56;;;;;;;;;;;;;;;27.55;64.46;95057.09;5114151;28;1020;-54
2023/07/05 09:16:25;;;;;;;;;;;;;;;27.68;65.54;95053.00;5114293;28;1051;-52
2023/07/05 09:22:51;;;;;;;;;;;;;;;27.73;68.88;95055.75;5113012;28;1285;-52
2023/07/05 09:25:21;;;;;;;;;;;;;;;27.73;69.41;95059.31;5113908;28;1079;-54
2023/07/05 09:27:51;;;;;;;;;;;;;;;27.79;65.98;95054.66;5113944;28;1909;-54
2023/07/05 09:30:25;;;;;;;;;;;;;;;27.78;67.53;95056.59;5114022;28;984;-54
2023/07/05 09:33:11;;;;;;;;;;;;;;;27.75;69.28;95057.13;5113970;28;968;-53
2023/07/05 09:35:41;;;;;;;;;;;;;;;27.74;69.12;95060.97;5113729;28;1450;-53
2023/07/05 09:38:13;;;;;;;;;;;;;;;27.69;69.67;95060.97;5114053;28;963;-53
2023/07/05 10:14:10;;;;;;;;;;;;;;;27.21;74.48;95025.38;5131688;27;1502;-53
2023/07/05 10:16:45;;;;;;;;;;;;;;;27.47;72.67;95022.75;5131522;27;952;-53
2023/07/05 10:19:26;;;;;;;;;;;;;;;27.67;70.28;95023.91;5131454;27;1395;-53
2023/07/05 10:22:06;;;;;;;;;;;;;;;27.81;72.10;95023.09;5131199;28;1984;-53
2023/07/05 10:25:01;;;;;;;;;;;;;;;28.10;72.09;95028.09;5131410;27;913;-53
2023/07/05 10:27:31;;;;;;;;;;;;;;;28.49;67.81;95030.25;5117981;27;1443;-53
2023/07/05 10:30:02;;;;;;;;;;;;;;;28.91;65.78;95040.13;5131400;27;1023;-53
2023/07/05 10:32:29;;;;;;;;;;;;;;;29.14;64.71;95035.09;5131210;27;1054;-53
2023/07/05 10:34:55;;;;;;;;;;;;;;;29.22;62.95;95037.28;5131115;27;1031;-53
2023/07/05 10:37:29;;;;;;;;;;;;;;;29.44;62.63;95038.81;5130911;28;1946;-52
2023/07/05 10:39:56;;;;;;;;;;;;;;;29.51;62.40;95036.59;5131008;28;1048;-53
2023/07/05 10:42:24;;;;;;;;;;;;;;;29.53;62.47;95045.38;5131161;27;1886;-53
2023/07/05 10:44:51;;;;;;;;;;;;;;;29.24;59.68;95054.34;5131183;27;1035;-53
2023/07/05 10:47:17;;;;;;;;;;;;;;;29.07;63.66;95059.31;5131086;27;1051;-53
2023/07/05 10:49:44;;;;;;;;;;;;;;;28.95;62.87;95067.88;5130933;27;1071;-52
2023/07/05 10:52:12;;;;;;;;;;;;;;;28.89;64.27;95075.31;5130793;27;1120;-53
2023/07/05 10:54:44;;;;;;;;;;;;;;;28.94;64.07;95075.31;5130914;27;929;-52
2023/07/05 10:57:30;;;;;;;;;;;;;;;29.07;64.81;95070.34;5130653;28;1155;-52
2023/07/05 11:00:01;;;;;;;;;;;;;;;29.06;64.60;95071.41;5130477;28;1233;-52
2023/07/05 11:02:46;;;;;;;;;;;;;;;28.97;63.82;95066.50;5130650;27;1913;-52
2023/07/05 11:05:17;;;;;;;;;;;;;;;28.85;63.34;95068.72;5130874;27;1023;-52
2023/07/05 11:07:44;;;;;;;;;;;;;;;28.93;63.82;95062.66;5130875;27;976;-53
2023/07/05 11:10:14;;;;;;;;;;;;;;;28.93;62.96;95048.91;5130371;27;1583;-52
2023/07/05 11:12:41;;;;;;;;;;;;;;;28.89;67.39;95047.78;5130423;27;1088;-52
2023/07/05 11:15:12;;;;;;;;;;;;;;;28.86;65.54;95045.63;5116219;27;1027;-52
2023/07/05 11:17:40;;;;;;;;;;;;;;;28.84;63.51;95035.97;5116812;28;1692;-52
2023/07/05 11:20:25;;;;;;;;;;;;;;;28.75;65.54;95022.00;5116661;28;1123;-52
2023/07/05 11:22:51;;;;;;;;;;;;;;;28.53;67.39;95034.16;5116627;28;1906;-52
2023/07/05 11:25:18;;;;;;;;;;;;;;;28.29;68.01;95025.59;5115373;28;996;-52
2023/07/05 11:27:50;;;;;;;;;;;;;;;28.11;68.50;95023.41;5116391;28;1116;-53
2023/07/05 11:30:38;;;;;;;;;;;;;;;28.09;68.87;95006.38;5116713;28;1130;-53
2023/07/05 11:33:04;;;;;;;;;;;;;;;28.16;68.40;95004.19;5116712;28;1019;-53
2023/07/05 11:35:45;;;;;;;;;;;;;;;28.14;68.80;94998.94;5116469;27;980;-52
2023/07/05 11:38:30;;;;;;;;;;;;;;;28.14;69.73;94993.44;5116291;28;1152;-53
2023/07/05 11:40:58;;;;;;;;;;;;;;;28.20;68.04;94994.28;5116360;28;1091;-53
2023/07/05 11:43:25;;;;;;;;;;;;;;;28.20;68.20;94997.84;5116054;28;1996;-53
2023/07/05 11:45:51;;;;;;;;;;;;;;;28.16;65.23;94995.94;5116198;28;1088;-53
2023/07/05 11:48:36;;;;;;;;;;;;;;;28.12;67.00;95000.34;5116180;28;969;-53
2023/07/05 11:51:02;;;;;;;;;;;;;;;28.01;69.35;95002.25;5116065;28;1044;-53
2023/07/05 11:53:31;;;;;;;;;;;;;;;28.11;68.09;94998.66;5115989;28;1056;-53
2023/07/05 11:55:58;;;;;;;;;;;;;;;28.17;69.00;94984.66;5116181;28;1050;-53
2023/07/05 11:58:27;;;;;;;;;;;;;;;28.26;67.70;94979.41;5115895;28;1531;-52
2023/07/05 12:00:59;;;;;;;;;;;;;;;28.29;68.06;94975.31;5115988;28;1912;-52
2023/07/05 12:03:29;;;;;;;;;;;;;;;28.26;67.04;94964.84;5115638;28;1987;-52
2023/07/05 12:06:06;;;;;;;;;;;;;;;28.28;66.57;94970.91;5116121;28;1015;-52
2023/07/05 12:08:41;;;;;;;;;;;;;;;28.31;65.89;94956.63;5115951;28;1011;-52
2023/07/05 12:11:07;;;;;;;;;;;;;;;28.22;65.72;94954.41;5115535;28;1777;-52
2023/07/05 12:13:34;;;;;;;;;;;;;;;28.17;68.06;94945.34;5114183;28;1261;-52
2023/07/05 12:16:03;;;;;;;;;;;;;;;28.01;72.89;94934.38;5115591;28;1019;-52
2023/07/05 12:18:30;;;;;;;;;;;;;;;27.98;73.63;94923.97;5115484;28;1103;-52
2023/07/05 12:20:58;;;;;;;;;;;;;;;28.05;71.79;94931.91;5115626;28;968;-52
2023/07/05 12:23:25;;;;;;;;;;;;;;;28.21;69.05;94935.44;5115507;28;1906;-52
2023/07/05 12:25:55;;;;;;;;;;;;;;;28.36;70.08;94948.34;5114559;28;952;-52
2023/07/05 12:28:29;;;;;;;;;;;;;;;28.55;68.26;94935.69;5115238;28;1027;-52
2023/07/05 12:31:03;;;;;;;;;;;;;;;28.70;67.04;94934.78;5115530;28;1043;-52
2023/07/05 12:33:31;;;;;;;;;;;;;;;28.79;65.63;94927.59;5115198;28;1091;-52
2023/07/05 12:36:14;;;;;;;;;;;;;;;28.77;64.96;94916.06;5115376;28;1051;-52
2023/07/05 12:38:41;;;;;;;;;;;;;;;28.76;66.97;94911.69;5115170;28;1044;-52
2023/07/05 12:41:19;;;;;;;;;;;;;;;28.74;67.37;94924.03;5115078;28;1011;-52
2023/07/05 12:43:46;;;;;;;;;;;;;;;28.68;67.16;94930.69;5115043;28;1060;-52
2023/07/05 12:46:12;;;;;;;;;;;;;;;28.59;67.29;94928.53;5114937;28;1040;-52
2023/07/05 12:48:39;;;;;;;;;;;;;;;28.55;66.90;94932.94;5113852;28;1049;-52
2023/07/05 12:51:06;;;;;;;;;;;;;;;28.47;67.26;94932.66;5115083;28;1000;-52
2023/07/05 12:53:33;;;;;;;;;;;;;;;28.42;68.37;94950.81;5114849;28;1048;-52
2023/07/05 12:56:05;;;;;;;;;;;;;;;28.40;70.49;94942.00;5114789;28;1146;-52
2023/07/05 12:58:31;;;;;;;;;;;;;;;28.39;69.76;94943.09;5114697;28;1043;-53
2023/07/05 13:00:59;;;;;;;;;;;;;;;28.45;70.00;94938.41;5114778;28;992;-53
2023/07/05 13:03:26;;;;;;;;;;;;;;;28.51;70.70;94937.28;5114562;28;1989;-53
2023/07/05 13:05:53;;;;;;;;;;;;;;;28.61;71.00;94945.56;5114735;28;972;-53
2023/07/05 13:08:19;;;;;;;;;;;;;;;28.74;68.66;94962.56;5114477;28;1127;-53
2023/07/05 13:10:45;;;;;;;;;;;;;;;28.74;67.35;94974.41;5114649;27;1565;-53
2023/07/05 13:13:21;;;;;;;;;;;;;;;28.39;69.95;95005.53;5114359;28;1239;-53
2023/07/05 13:15:47;;;;;;;;;;;;;;;27.66;62.40;95020.34;5114561;28;1036;-52
2023/07/05 13:18:28;;;;;;;;;;;;;;;26.99;62.61;95011.84;5114411;28;1008;-53
2023/07/05 13:21:11;;;;;;;;;;;;;;;26.64;61.83;95018.00;5114351;28;1661;-53
2023/07/05 13:23:44;;;;;;;;;;;;;;;26.46;63.00;95014.56;5114449;28;1923;-53
2023/07/05 13:26:32;;;;;;;;;;;;;;;26.49;61.45;95024.19;5114240;28;1041;-53
2023/07/05 13:28:59;;;;;;;;;;;;;;;26.61;60.81;95056.91;5114239;28;1062;-53
2023/07/05 13:31:26;;;;;;;;;;;;;;;26.56;60.14;95085.09;5114134;28;1157;-53
2023/07/05 13:33:53;;;;;;;;;;;;;;;26.20;64.00;95098.50;5114155;28;1343;-53
2023/07/05 13:36:19;;;;;;;;;;;;;;;25.76;66.48;95105.97;5114096;28;961;-52
2023/07/05 13:38:45;;;;;;;;;;;;;;;25.18;68.33;95113.78;5112923;28;1076;-53